Time;durP1;ratioP1;P1;durP2;ratioP2;P2;SDS_P1;SDS_P2;PMS_P1;PMS_P2;Temp;Humidity;BMP_temperature;BMP_pressure;BME280_temperature;BME280_humidity;BME280_pressure;Samples;Min_cycle;Max_cycle;Signal;HPM_P1;HPM_P2
2022/04/05 00:01:59;;;;;;;0.50;0.50;;;;;;;0.93;83.08;97889.75;5063143;28;20104;-63
2022/04/05 00:04:24;;;;;;;0.77;0.60;;;;;;;0.89;83.28;97888.97;5063284;28;20059;-63
2022/04/05 00:06:49;;;;;;;0.60;0.60;;;;;;;0.84;83.39;97898.38;5063162;28;20028;-63
2022/04/05 00:09:15;;;;;;;0.60;0.43;;;;;;;0.79;83.38;97897.56;5063378;28;20028;-65
2022/04/05 00:11:40;;;;;;;0.43;0.43;;;;;;;0.67;83.13;97898.53;5063196;28;20032;-63
2022/04/05 00:14:06;;;;;;;0.73;0.60;;;;;;;0.59;83.26;97913.91;5063357;28;20032;-64
2022/04/05 00:16:31;;;;;;;2.92;0.70;;;;;;;0.53;83.26;97914.78;5063162;28;20456;-63
2022/04/05 00:18:56;;;;;;;0.55;0.52;;;;;;;0.48;83.44;97916.53;5063156;28;20305;-64
2022/04/05 00:21:22;;;;;;;0.43;0.43;;;;;;;0.49;83.36;97924.22;5063016;28;20031;-64
2022/04/05 00:23:47;;;;;;;0.50;0.50;;;;;;;0.46;83.59;97931.84;5063263;28;20025;-64
2022/04/05 00:26:12;;;;;;;0.60;0.50;;;;;;;0.41;83.56;97933.63;5063050;28;20079;-63
2022/04/05 00:28:38;;;;;;;0.73;0.50;;;;;;;0.39;83.49;97939.56;5063147;28;20051;-64
2022/04/05 00:31:03;;;;;;;0.75;0.60;;;;;;;0.29;83.67;97924.34;5062689;28;20025;-65
2022/04/05 00:33:29;;;;;;;0.95;0.70;;;;;;;0.28;83.65;97939.66;5062771;28;20493;-64
2022/04/05 00:35:54;;;;;;;0.45;0.45;;;;;;;0.23;83.85;97947.34;5062888;28;20029;-63
2022/04/05 00:38:19;;;;;;;1.05;0.60;;;;;;;0.19;83.76;97953.34;5062612;28;20380;-63
2022/04/05 00:40:44;;;;;;;0.50;0.50;;;;;;;0.14;83.30;97947.41;5062829;28;20024;-64
2022/04/05 00:43:10;;;;;;;0.68;0.60;;;;;;;0.13;83.40;97950.81;5063050;28;20029;-64
2022/04/05 00:45:35;;;;;;;0.50;0.50;;;;;;;0.11;83.70;97961.03;5062695;28;20085;-64
2022/04/05 00:48:04;;;;;;;0.80;0.80;;;;;;;-0.01;83.45;97955.13;5062291;28;20137;-62
2022/04/05 00:50:36;;;;;;;0.63;0.60;;;;;;;0.02;83.76;97956.00;5062456;28;20083;-63
2022/04/05 00:53:05;;;;;;;1.00;0.80;;;;;;;-0.02;83.82;97963.63;5062679;28;20021;-63
2022/04/05 00:55:31;;;;;;;0.55;0.55;;;;;;;-0.03;83.79;97976.38;5062970;28;20036;-63
2022/04/05 00:57:59;;;;;;;0.50;0.50;;;;;;;-0.07;83.68;97977.28;5062579;28;20029;-63
2022/04/05 01:00:25;;;;;;;0.55;0.55;;;;;;;-0.07;83.91;97979.81;5062635;28;20017;-63
2022/04/05 01:02:54;;;;;;;0.70;0.65;;;;;;;-0.10;84.06;97980.69;5062555;28;20036;-63
2022/04/05 01:05:20;;;;;;;1.10;0.90;;;;;;;-0.11;83.91;97978.16;5062534;28;20034;-63
2022/04/05 01:07:49;;;;;;;0.80;0.60;;;;;;;-0.12;84.02;97982.41;5062276;28;20033;-63
2022/04/05 01:10:14;;;;;;;0.80;0.70;;;;;;;-0.13;84.16;97996.00;5063665;28;20077;-63
2022/04/05 01:12:41;;;;;;;0.93;0.70;;;;;;;-0.14;84.14;97989.19;5066334;28;20025;-62
2022/04/05 01:15:07;;;;;;;0.82;0.68;;;;;;;-0.18;84.16;97997.72;5066355;28;20020;-63
2022/04/05 01:17:34;;;;;;;0.60;0.60;;;;;;;-0.18;84.40;98005.38;5066426;28;20085;-63
2022/04/05 01:20:00;;;;;;;1.05;0.50;;;;;;;-0.22;84.38;98003.69;5066395;28;20025;-63
2022/04/05 01:22:25;;;;;;;0.80;0.80;;;;;;;-0.22;84.46;98007.09;5065978;28;20123;-63
2022/04/05 01:24:51;;;;;;;0.65;0.57;;;;;;;-0.26;84.38;98006.22;5066213;28;20035;-62
2022/04/05 01:27:18;;;;;;;0.60;0.60;;;;;;;-0.28;84.52;98007.97;5066116;28;20056;-62
2022/04/05 01:29:45;;;;;;;1.15;0.80;;;;;;;-0.30;84.52;98006.25;5065720;28;20025;-63
2022/04/05 01:32:10;;;;;;;1.35;0.60;;;;;;;-0.33;84.59;98006.25;5065665;28;20025;-63
2022/04/05 01:34:37;;;;;;;2.15;0.60;;;;;;;-0.37;84.44;98015.66;5065727;28;20035;-63
2022/04/05 01:37:08;;;;;;;1.60;0.85;;;;;;;-0.39;84.61;98017.34;5065624;28;20025;-62
2022/04/05 01:39:35;;;;;;;1.25;0.80;;;;;;;-0.40;84.77;98026.69;5065848;28;20021;-64
2022/04/05 01:42:07;;;;;;;0.93;0.80;;;;;;;-0.41;84.63;98021.59;5065749;28;20051;-63
2022/04/05 01:44:34;;;;;;;1.70;0.70;;;;;;;-0.42;84.68;98019.91;5065886;28;20084;-63
2022/04/05 01:47:05;;;;;;;2.55;0.85;;;;;;;-0.45;84.86;98020.75;5065452;28;20045;-63
2022/04/05 01:49:30;;;;;;;2.25;0.73;;;;;;;-0.47;84.69;98031.81;5065659;28;20028;-63
2022/04/05 01:51:55;;;;;;;1.17;0.90;;;;;;;-0.51;84.41;98033.50;5065398;28;20027;-63
2022/04/05 01:54:20;;;;;;;1.08;0.90;;;;;;;-0.51;84.61;98041.16;5065571;28;20029;-62
2022/04/05 01:56:49;;;;;;;3.88;1.42;;;;;;;-0.54;84.54;98041.16;5065518;28;20055;-61
2022/04/05 01:59:16;;;;;;;0.77;0.77;;;;;;;-0.54;84.48;98042.00;5065474;28;20554;-63
2022/04/05 02:01:42;;;;;;;0.98;0.70;;;;;;;-0.55;84.53;98042.88;5065215;28;20369;-62
2022/04/05 02:04:08;;;;;;;1.25;0.80;;;;;;;-0.56;84.63;98050.53;5065644;28;20028;-62
2022/04/05 02:06:34;;;;;;;0.63;0.57;;;;;;;-0.55;84.59;98054.75;5065086;28;20487;-61
2022/04/05 02:08:59;;;;;;;1.02;0.75;;;;;;;-0.57;84.52;98051.34;5065077;28;20049;-64
2022/04/05 02:11:24;;;;;;;2.47;0.80;;;;;;;-0.58;84.32;98052.22;5065168;28;20021;-62
2022/04/05 02:13:50;;;;;;;1.00;0.70;;;;;;;-0.59;84.30;98050.53;5065380;28;20484;-62
2022/04/05 02:16:15;;;;;;;1.40;0.70;;;;;;;-0.60;84.43;98061.56;5065187;28;20035;-63
2022/04/05 02:18:41;;;;;;;1.25;0.88;;;;;;;-0.59;84.39;98068.38;5065035;28;20036;-63
2022/04/05 02:21:07;;;;;;;3.97;0.70;;;;;;;-0.63;84.03;98058.19;5064234;28;20021;-64
2022/04/05 02:23:32;;;;;;;1.20;0.60;;;;;;;-0.64;83.95;98060.72;5063279;28;20300;-63
2022/04/05 02:25:58;;;;;;;1.15;0.80;;;;;;;-0.67;83.67;98066.66;5065080;28;20403;-63
2022/04/05 02:28:23;;;;;;;0.70;0.50;;;;;;;-0.76;83.96;98046.28;5065147;28;20017;-63
2022/04/05 02:30:49;;;;;;;1.40;0.77;;;;;;;-0.68;83.93;98070.06;5063370;28;20397;-63
2022/04/05 02:33:14;;;;;;;3.30;1.35;;;;;;;-0.71;83.88;98062.44;5064681;28;20040;-62
2022/04/05 02:35:39;;;;;;;1.48;0.98;;;;;;;-0.70;84.18;98070.94;5064648;28;20021;-63
2022/04/05 02:38:05;;;;;;;0.60;0.60;;;;;;;-0.71;84.05;98069.22;5064677;28;20029;-62
2022/04/05 02:40:30;;;;;;;1.45;0.93;;;;;;;-0.72;84.00;98064.97;5064684;28;20041;-62
2022/04/05 02:42:56;;;;;;;1.15;0.70;;;;;;;-0.75;83.82;98071.75;5064417;28;20103;-63
2022/04/05 02:45:22;;;;;;;1.10;0.70;;;;;;;-0.77;83.93;98081.09;5064672;28;20033;-62
2022/04/05 02:47:47;;;;;;;1.08;0.70;;;;;;;-0.78;83.21;98081.09;5064405;28;20093;-62
2022/04/05 02:50:17;;;;;;;0.98;0.85;;;;;;;-0.81;83.26;98076.88;5064694;28;20071;-62
2022/04/05 02:52:45;;;;;;;2.08;0.90;;;;;;;-0.81;83.41;98086.19;5064428;28;20029;-62
2022/04/05 02:55:11;;;;;;;1.23;0.70;;;;;;;-0.79;83.49;98090.47;5064457;28;20032;-63
2022/04/05 02:57:40;;;;;;;0.63;0.63;;;;;;;-0.80;83.39;98088.75;5064313;28;20025;-63
2022/04/05 03:00:08;;;;;;;2.40;0.73;;;;;;;-0.82;83.24;98087.91;5064385;28;20029;-62
2022/04/05 03:02:37;;;;;;;0.80;0.68;;;;;;;-0.82;83.39;98085.38;5063963;28;20477;-63
2022/04/05 03:05:02;;;;;;;1.55;0.80;;;;;;;-0.81;83.44;98097.25;5064249;28;20089;-63
2022/04/05 03:07:28;;;;;;;1.38;0.90;;;;;;;-0.79;83.45;98097.25;5062630;28;20256;-63
2022/04/05 03:09:53;;;;;;;1.05;0.70;;;;;;;-0.86;83.14;98096.38;5064103;28;20035;-63
2022/04/05 03:12:19;;;;;;;1.02;0.85;;;;;;;-0.85;83.17;98098.09;5064019;28;20392;-62
2022/04/05 03:14:45;;;;;;;1.20;0.88;;;;;;;-0.85;83.28;98108.28;5063900;28;20028;-63
2022/04/05 03:17:11;;;;;;;1.98;0.73;;;;;;;-0.89;83.28;98104.03;5064056;28;20087;-63
2022/04/05 03:19:36;;;;;;;1.98;0.85;;;;;;;-0.90;82.93;98112.53;5062743;28;20021;-63
2022/04/05 03:22:02;;;;;;;4.35;1.30;;;;;;;-0.90;83.07;98120.16;5063751;28;20491;-63
2022/04/05 03:24:28;;;;;;;1.25;0.80;;;;;;;-0.89;83.17;98114.22;5064106;28;20232;-63
2022/04/05 03:26:53;;;;;;;0.82;0.80;;;;;;;-0.90;83.14;98120.16;5063779;28;20021;-63
2022/04/05 03:29:18;;;;;;;4.30;0.80;;;;;;;-0.92;82.97;98121.84;5063594;28;20025;-63
2022/04/05 03:31:44;;;;;;;1.58;0.60;;;;;;;-1.06;82.99;98109.09;5063483;28;20021;-62
2022/04/05 03:34:09;;;;;;;3.97;1.10;;;;;;;-0.96;82.91;98127.81;5063479;28;20020;-62
2022/04/05 03:36:34;;;;;;;3.00;0.80;;;;;;;-0.98;82.79;98125.25;5063590;28;20083;-62
2022/04/05 03:39:00;;;;;;;1.25;0.90;;;;;;;-1.00;82.81;98132.03;5063547;28;20444;-62
2022/04/05 03:41:25;;;;;;;2.00;0.95;;;;;;;-1.02;82.90;98138.81;5063424;28;20060;-62
2022/04/05 03:43:51;;;;;;;4.68;0.73;;;;;;;-1.06;82.68;98140.53;5063596;28;20120;-62
2022/04/05 03:46:16;;;;;;;0.77;0.60;;;;;;;-1.11;81.88;98139.66;5063321;28;20055;-61
2022/04/05 03:48:42;;;;;;;3.38;1.25;;;;;;;-1.12;81.72;98143.91;5063282;28;20021;-62
2022/04/05 03:51:09;;;;;;;1.65;0.70;;;;;;;-1.16;81.66;98147.28;5063435;28;20073;-62
2022/04/05 03:53:36;;;;;;;2.55;0.90;;;;;;;-1.15;81.93;98150.69;5063170;28;20024;-62
2022/04/05 03:56:02;;;;;;;4.15;1.10;;;;;;;-1.18;80.74;98148.16;5063576;28;20131;-63
2022/04/05 03:58:27;;;;;;;0.77;0.65;;;;;;;-1.21;81.24;98151.50;5063368;28;20013;-63
2022/04/05 04:00:53;;;;;;;0.90;0.70;;;;;;;-1.20;79.69;98158.31;5063400;28;20029;-62
2022/04/05 04:03:19;;;;;;;1.25;0.82;;;;;;;-1.18;80.13;98163.44;5062997;28;20396;-63
2022/04/05 04:05:44;;;;;;;1.88;0.70;;;;;;;-1.20;79.96;98160.88;5063126;28;20457;-63
2022/04/05 04:08:09;;;;;;;1.98;0.82;;;;;;;-1.21;80.15;98161.69;5062846;28;20115;-62
2022/04/05 04:10:35;;;;;;;2.10;1.70;;;;;;;-1.22;80.25;98172.75;5062825;28;20020;-62
2022/04/05 04:13:00;;;;;;;2.92;1.13;;;;;;;-1.25;80.36;98176.09;5063174;28;20025;-62
2022/04/05 04:15:26;;;;;;;1.17;0.88;;;;;;;-1.29;79.74;98168.47;5061853;28;20027;-62
2022/04/05 04:17:51;;;;;;;1.33;0.80;;;;;;;-1.27;80.22;98172.72;5062953;28;20029;-62
2022/04/05 04:20:16;;;;;;;3.55;1.00;;;;;;;-1.29;79.69;98176.09;5062946;28;20056;-62
2022/04/05 04:22:42;;;;;;;6.13;1.35;;;;;;;-1.31;79.69;98173.53;5062858;28;20029;-62
2022/04/05 04:25:08;;;;;;;3.78;1.30;;;;;;;-1.31;79.47;98183.72;5062971;28;20132;-63
2022/04/05 04:27:34;;;;;;;1.27;0.82;;;;;;;-1.30;80.08;98185.44;5062876;28;20041;-62
2022/04/05 04:30:00;;;;;;;2.50;1.88;;;;;;;-1.34;79.88;98191.34;5061481;28;20089;-63
2022/04/05 04:32:25;;;;;;;4.40;0.98;;;;;;;-1.37;79.57;98183.72;5067709;23;20367;-73
2022/04/05 04:34:51;;;;;;;3.10;1.42;;;;;;;-1.31;79.61;98196.47;5060041;28;20025;-72
2022/04/05 04:37:16;;;;;;;2.53;1.08;;;;;;;-1.32;80.04;98189.69;5062432;28;20028;-72
2022/04/05 04:39:42;;;;;;;4.55;1.10;;;;;;;-1.15;80.64;98206.72;5062419;28;20017;-68
2022/04/05 04:42:07;;;;;;;1.88;0.80;;;;;;;-0.89;81.57;98204.25;5044489;28;20025;-72
2022/04/05 04:44:33;;;;;;;1.85;1.23;;;;;;;-0.54;82.26;98200.03;5062722;28;20237;-72
2022/04/05 04:46:58;;;;;;;1.52;0.77;;;;;;;-0.13;83.78;98194.97;5065585;28;20063;-72
2022/04/05 04:49:24;;;;;;;3.95;1.00;;;;;;;0.28;84.55;98202.53;5046368;28;20025;-71
2022/04/05 04:51:49;;;;;;;1.92;0.90;;;;;;;0.80;83.87;98213.47;5064462;28;20029;-72
2022/04/05 04:54:15;;;;;;;1.55;0.90;;;;;;;1.21;83.72;98209.00;5048427;28;20470;-72
2022/04/05 04:56:40;;;;;;;0.98;0.70;;;;;;;1.73;83.48;98215.44;5066235;28;20021;-72
2022/04/05 04:59:06;;;;;;;3.83;1.20;;;;;;;2.34;85.33;98214.06;5048703;28;20021;-70
2022/04/05 05:01:31;;;;;;;1.10;0.70;;;;;;;2.83;86.30;98216.91;5066631;28;20021;-72
2022/04/05 05:03:56;;;;;;;0.80;0.70;;;;;;;3.40;88.00;98222.16;5048598;28;20048;-71
2022/04/05 05:06:22;;;;;;;9.07;0.98;;;;;;;3.67;85.05;98218.34;5066432;28;20024;-72
2022/04/05 05:08:47;;;;;;;3.92;0.85;;;;;;;4.07;84.82;98223.69;5066154;28;20021;-69
2022/04/05 05:11:13;;;;;;;2.08;0.80;;;;;;;4.31;83.68;98226.69;5065102;28;20032;-65
2022/04/05 05:13:39;;;;;;;4.43;0.80;;;;;;;4.39;78.11;98227.41;5066024;28;20024;-76
2022/04/05 05:16:04;;;;;;;4.88;0.82;;;;;;;4.59;79.52;98233.88;5066539;28;20036;-75
2022/04/05 05:18:29;;;;;;;0.88;0.63;;;;;;;4.93;82.09;98234.94;5066298;28;20021;-76
2022/04/05 05:20:55;;;;;;;2.15;0.98;;;;;;;5.32;81.89;98236.69;5066280;28;20017;-75
2022/04/05 05:23:21;;;;;;;1.58;0.65;;;;;;;5.85;84.09;98247.53;5065601;28;20032;-75
2022/04/05 05:25:47;;;;;;;2.70;0.90;;;;;;;6.27;84.25;98239.66;5065807;28;20079;-74
2022/04/05 05:28:13;;;;;;;3.72;0.90;;;;;;;6.54;79.63;98255.28;5048031;28;20020;-74
2022/04/05 05:30:39;;;;;;;1.67;0.80;;;;;;;6.73;81.25;98248.75;5066160;28;20029;-75
2022/04/05 05:33:04;;;;;;;2.92;1.38;;;;;;;7.08;82.26;98254.66;5065894;28;20072;-75
2022/04/05 05:35:30;;;;;;;1.48;0.73;;;;;;;7.46;81.18;98259.59;5066143;28;20016;-76
2022/04/05 05:37:58;;;;;;;6.57;0.88;;;;;;;7.77;81.37;98268.13;5065835;28;20028;-76
2022/04/05 05:40:24;;;;;;;2.30;0.70;;;;;;;7.90;77.70;98266.84;5047822;28;20049;-74
2022/04/05 05:42:53;;;;;;;2.45;0.90;;;;;;;8.12;78.90;98270.47;5065733;28;20028;-71
2022/04/05 05:45:20;;;;;;;3.72;0.70;;;;;;;8.21;74.82;98271.91;5065374;28;20568;-71
2022/04/05 05:47:46;;;;;;;3.13;0.75;;;;;;;8.61;77.16;98274.94;5065449;28;20029;-72
2022/04/05 05:50:12;;;;;;;3.47;0.70;;;;;;;8.88;75.34;98280.84;5065955;28;20679;-71
2022/04/05 05:52:39;;;;;;;1.55;0.60;;;;;;;9.20;72.79;98283.16;5065318;28;20033;-71
2022/04/05 05:55:05;;;;;;;1.70;0.68;;;;;;;9.57;74.58;98278.34;5047750;28;20450;-71
2022/04/05 05:57:30;;;;;;;3.15;0.80;;;;;;;9.91;73.50;98286.53;5065261;28;20053;-71
2022/04/05 05:59:55;;;;;;;3.30;1.02;;;;;;;10.23;74.45;98279.22;5047719;28;20036;-71
2022/04/05 06:02:21;;;;;;;7.38;1.08;;;;;;;10.71;73.74;98286.75;5065488;28;20028;-71
2022/04/05 06:04:46;;;;;;;0.77;0.50;;;;;;;11.04;72.95;98300.91;5065769;28;20037;-71
2022/04/05 06:07:12;;;;;;;1.92;1.27;;;;;;;11.37;72.50;98296.88;5065236;28;20388;-72
2022/04/05 06:09:37;;;;;;;2.63;0.60;;;;;;;11.53;71.83;98305.66;5065402;28;20055;-72
2022/04/05 06:12:03;;;;;;;3.17;0.77;;;;;;;11.80;70.05;98304.44;5065221;28;20029;-72
2022/04/05 06:14:28;;;;;;;5.50;0.80;;;;;;;11.85;70.08;98307.63;5065337;28;20025;-73
2022/04/05 06:16:54;;;;;;;1.00;0.60;;;;;;;12.20;68.95;98312.13;5065639;28;20123;-73
2022/04/05 06:19:19;;;;;;;2.58;1.08;;;;;;;12.25;68.08;98296.28;5047055;28;20557;-72
2022/04/05 06:21:44;;;;;;;2.10;0.70;;;;;;;12.63;68.03;98303.94;5064744;28;20029;-72
2022/04/05 06:24:10;;;;;;;4.82;0.80;;;;;;;12.65;67.12;98303.84;5064722;28;20435;-72
2022/04/05 06:26:35;;;;;;;3.28;0.50;;;;;;;12.81;66.38;98305.66;5064734;28;20048;-72
2022/04/05 06:29:00;;;;;;;0.73;0.40;;;;;;;12.79;60.36;98305.72;5064732;28;20413;-71
2022/04/05 06:31:26;;;;;;;1.77;0.80;;;;;;;12.20;57.46;98311.25;5064233;28;20048;-72
2022/04/05 06:33:51;;;;;;;2.45;0.70;;;;;;;11.96;59.47;98319.31;5064285;28;20049;-72
2022/04/05 06:36:17;;;;;;;1.77;0.90;;;;;;;11.98;60.70;98325.28;5046341;28;20021;-71
2022/04/05 06:38:42;;;;;;;1.88;0.70;;;;;;;12.11;58.29;98330.75;5064060;28;20035;-72
2022/04/05 06:41:07;;;;;;;3.45;0.60;;;;;;;12.36;57.44;98321.75;5046232;28;20025;-72
2022/04/05 06:43:33;;;;;;;1.75;0.50;;;;;;;12.73;59.07;98329.47;5064341;28;20029;-72
2022/04/05 06:45:58;;;;;;;2.13;0.80;;;;;;;13.14;60.48;98334.31;5062858;28;20094;-71
2022/04/05 06:48:24;;;;;;;2.10;0.90;;;;;;;13.21;57.79;98323.56;5063628;28;20040;-72
2022/04/05 06:50:50;;;;;;;1.40;0.63;;;;;;;13.41;58.39;98332.06;5045931;28;20028;-72
2022/04/05 06:53:16;;;;;;;3.38;0.80;;;;;;;13.71;57.93;98329.59;5063816;28;20021;-72
2022/04/05 06:55:42;;;;;;;3.88;0.90;;;;;;;13.71;52.40;98333.97;5064058;28;20020;-72
2022/04/05 06:58:08;;;;;;;3.78;0.80;;;;;;;13.60;45.97;98335.41;5046182;28;20025;-72
2022/04/05 07:00:34;;;;;;;3.10;0.70;;;;;;;13.76;52.80;98334.56;5046216;28;20059;-73
2022/04/05 07:03:00;;;;;;;3.20;0.85;;;;;;;13.91;51.95;98332.03;5063916;28;20047;-74
2022/04/05 07:05:25;;;;;;;1.92;0.77;;;;;;;14.05;52.87;98334.72;5045867;28;20020;-72
2022/04/05 07:07:50;;;;;;;4.57;0.60;;;;;;;14.26;50.56;98331.81;5062861;28;20021;-72
2022/04/05 07:10:19;;;;;;;3.80;0.70;;;;;;;14.28;49.43;98323.91;5045678;28;20440;-72
2022/04/05 07:12:45;;;;;;;2.55;0.88;;;;;;;14.56;47.91;98330.97;5063680;28;20028;-71
2022/04/05 07:15:11;;;;;;;2.15;0.57;;;;;;;14.76;45.78;98334.16;5063716;28;20025;-72
2022/04/05 07:17:37;;;;;;;3.97;1.60;;;;;;;14.97;46.14;98333.84;5063849;28;20143;-72
2022/04/05 07:20:04;;;;;;;1.90;0.60;;;;;;;15.17;46.66;98332.66;5063911;28;20096;-72
2022/04/05 07:22:30;;;;;;;3.92;0.68;;;;;;;15.24;44.71;98328.72;5063369;28;20031;-73
2022/04/05 07:24:55;;;;;;;4.07;0.63;;;;;;;15.30;42.33;98334.53;5045838;28;20156;-74
2022/04/05 07:27:20;;;;;;;3.15;0.73;;;;;;;15.25;43.60;98332.19;5063479;28;20041;-72
2022/04/05 07:29:46;;;;;;;2.03;0.60;;;;;;;15.48;44.14;98342.97;5063583;28;20577;-73
2022/04/05 07:32:11;;;;;;;2.30;0.70;;;;;;;15.59;41.08;98340.53;5063226;28;20142;-75
2022/04/05 07:34:36;;;;;;;3.47;0.80;;;;;;;15.34;42.40;98339.47;5063350;28;20025;-72
2022/04/05 07:37:02;;;;;;;4.00;0.93;;;;;;;15.38;44.76;98339.28;5063471;28;20477;-73
2022/04/05 07:39:27;;;;;;;2.08;0.60;;;;;;;15.51;42.11;98345.41;5045249;28;20544;-72
2022/04/05 07:41:53;;;;;;;1.83;0.65;;;;;;;15.63;42.45;98345.59;5061876;28;20047;-77
2022/04/05 07:44:19;;;;;;;9.00;0.90;;;;;;;15.41;38.13;98341.69;5063477;28;20059;-77
2022/04/05 07:46:45;;;;;;;4.45;0.77;;;;;;;15.05;37.91;98341.25;5045299;28;20071;-68
2022/04/05 07:49:10;;;;;;;3.80;0.90;;;;;;;15.28;43.49;98337.22;5063868;28;20013;-74
2022/04/05 07:51:36;;;;;;;4.80;0.80;;;;;;;16.51;39.29;98347.00;5063820;28;20027;-69
2022/04/05 07:54:02;;;;;;;9.35;1.13;;;;;;;16.99;37.55;98348.19;5045024;28;20052;-68
2022/04/05 07:56:27;;;;;;;4.40;1.00;;;;;;;16.63;35.87;98347.94;5045287;28;20084;-68
2022/04/05 07:58:52;;;;;;;2.28;1.00;;;;;;;16.03;36.22;98348.31;5063367;28;20361;-68
2022/04/05 08:01:18;;;;;;;3.83;0.70;;;;;;;15.58;37.16;98344.09;5063228;28;20294;-68
2022/04/05 08:03:44;;;;;;;3.78;1.40;;;;;;;15.68;36.80;98346.13;5063010;28;20021;-69
2022/04/05 08:06:10;;;;;;;3.80;0.90;;;;;;;15.52;35.74;98343.63;5063300;28;20021;-68
2022/04/05 08:08:35;;;;;;;1.95;0.88;;;;;;;15.28;36.30;98339.84;5062587;28;20475;-68
2022/04/05 08:11:00;;;;;;;3.35;0.90;;;;;;;15.04;35.77;98347.38;5062920;28;20085;-68
2022/04/05 08:13:26;;;;;;;2.75;0.80;;;;;;;14.79;35.50;98349.69;5062743;28;20021;-68
2022/04/05 08:15:52;;;;;;;2.83;0.90;;;;;;;14.48;34.80;98347.09;5044918;28;20579;-68
2022/04/05 08:18:19;;;;;;;5.25;0.80;;;;;;;14.27;33.62;98354.38;5062883;28;20055;-68
2022/04/05 08:20:44;;;;;;;1.70;0.70;;;;;;;14.22;36.81;98357.25;5061845;28;20028;-68
2022/04/05 08:23:10;;;;;;;5.43;0.82;;;;;;;14.00;33.22;98355.84;5062529;28;20021;-67
2022/04/05 08:25:35;;;;;;;5.18;0.90;;;;;;;13.91;33.45;98352.91;5062687;28;20035;-67
2022/04/05 08:28:01;;;;;;;2.67;0.77;;;;;;;13.99;34.35;98350.72;5062750;28;20035;-68
2022/04/05 08:30:27;;;;;;;3.03;0.77;;;;;;;14.41;36.18;98356.19;5062577;28;20028;-67
2022/04/05 08:32:52;;;;;;;6.55;1.20;;;;;;;14.74;35.30;98357.75;5062261;28;20075;-68
2022/04/05 08:35:20;;;;;;;3.13;0.70;;;;;;;14.96;30.02;98355.69;5044272;28;20025;-67
2022/04/05 08:37:47;;;;;;;3.17;0.70;;;;;;;14.82;30.37;98359.13;5060874;28;20045;-67
2022/04/05 08:40:14;;;;;;;3.53;1.00;;;;;;;14.72;28.98;98366.63;5062624;28;20055;-68
2022/04/05 08:42:42;;;;;;;5.13;0.80;;;;;;;14.58;31.64;98363.06;5062370;28;20050;-68
2022/04/05 08:45:10;;;;;;;1.77;0.70;;;;;;;15.02;33.03;98365.78;5062395;28;20099;-68
2022/04/05 08:47:41;;;;;;;8.68;1.17;;;;;;;15.26;30.40;98361.75;5062502;28;20035;-72
2022/04/05 08:50:08;;;;;;;2.65;0.70;;;;;;;15.46;27.82;98373.63;5062439;28;20053;-74
2022/04/05 08:52:34;;;;;;;2.03;0.85;;;;;;;15.05;27.69;98370.81;5062096;28;20017;-72
2022/04/05 08:55:00;;;;;;;1.85;0.98;;;;;;;14.86;28.70;98365.84;5062364;28;20060;-72
2022/04/05 08:57:26;;;;;;;1.73;0.82;;;;;;;14.90;28.74;98367.34;5062447;28;20035;-66
2022/04/05 08:59:52;;;;;;;2.25;1.23;;;;;;;14.81;26.47;98360.88;5062598;28;20025;-67
2022/04/05 09:02:25;;;;;;;2.35;0.75;;;;;;;14.72;27.68;98369.25;5061697;28;20334;-68
2022/04/05 09:04:52;;;;;;;2.03;1.00;;;;;;;14.44;26.68;98363.84;5061475;28;20033;-67
2022/04/05 09:07:35;;;;;;;2.13;0.80;;;;;;;14.07;27.62;98361.56;5061508;28;20020;-67
2022/04/05 09:10:15;;;;;;;3.63;0.98;;;;;;;14.21;27.84;98370.38;5061176;28;20029;-68
2022/04/05 09:12:49;;;;;;;2.05;0.70;;;;;;;14.58;27.02;98360.47;5043235;28;20049;-66
2022/04/05 09:15:17;;;;;;;2.25;1.05;;;;;;;14.75;27.78;98369.06;5061338;28;20024;-67
2022/04/05 09:17:44;;;;;;;2.60;1.27;;;;;;;15.29;27.62;98365.03;5061597;28;20047;-67
2022/04/05 09:20:14;;;;;;;2.33;1.13;;;;;;;15.44;25.84;98371.13;5061756;28;20061;-68
2022/04/05 09:22:40;;;;;;;2.65;1.10;;;;;;;15.39;25.06;98367.09;5061299;28;20063;-67
2022/04/05 09:25:08;;;;;;;2.13;0.95;;;;;;;15.35;26.43;98364.66;5061439;28;20044;-67
2022/04/05 09:27:44;;;;;;;1.63;0.85;;;;;;;15.23;24.89;98368.88;5061090;28;20071;-67
2022/04/05 09:30:17;;;;;;;3.63;1.23;;;;;;;15.30;25.89;98371.97;5059652;28;20024;-67
2022/04/05 09:32:45;;;;;;;3.92;1.02;;;;;;;15.47;26.30;98373.53;5064291;28;20045;-68
2022/04/05 09:35:11;;;;;;;5.38;1.13;;;;;;;15.63;24.87;98379.56;5064902;28;20017;-67
2022/04/05 09:37:38;;;;;;;1.55;1.13;;;;;;;15.64;24.98;98386.50;5064369;28;20489;-68
2022/04/05 09:40:14;;;;;;;3.13;1.13;;;;;;;15.79;24.69;98382.09;5065127;28;20029;-68
2022/04/05 09:42:58;;;;;;;2.30;1.20;;;;;;;15.65;25.34;98377.72;5064658;28;20089;-68
2022/04/05 09:46:03;;;;;;;3.08;1.17;;;;;;;15.56;25.81;98372.13;5065230;28;20053;-67
2022/04/05 09:48:35;;;;;;;2.03;1.00;;;;;;;15.66;24.30;98374.16;5063395;28;20265;-67
2022/04/05 09:51:02;;;;;;;2.40;0.93;;;;;;;15.88;24.68;98375.44;5065566;28;20016;-67
2022/04/05 09:53:30;;;;;;;4.88;1.10;;;;;;;15.90;24.00;98376.16;5064709;28;20033;-67
2022/04/05 09:56:10;;;;;;;2.13;1.00;;;;;;;15.83;24.22;98376.56;5065335;28;20031;-67
2022/04/05 09:58:43;;;;;;;1.92;0.90;;;;;;;15.85;24.06;98373.84;5065244;28;20049;-67
2022/04/05 10:01:10;;;;;;;2.63;1.33;;;;;;;15.83;24.42;98376.56;5065128;28;20025;-68
2022/04/05 10:03:39;;;;;;;1.38;1.00;;;;;;;15.69;23.55;98373.97;5047017;28;20021;-68
2022/04/05 10:06:06;;;;;;;2.83;1.15;;;;;;;15.35;24.58;98372.50;5064911;28;20267;-66
2022/04/05 10:08:33;;;;;;;2.47;1.20;;;;;;;15.35;23.83;98372.50;5064604;28;20031;-66
2022/04/05 10:11:00;;;;;;;3.60;0.88;;;;;;;15.52;22.52;98373.25;5046863;28;20035;-67
2022/04/05 10:13:29;;;;;;;2.50;1.00;;;;;;;15.29;23.19;98367.66;5064723;28;20102;-68
2022/04/05 10:15:56;;;;;;;5.13;1.23;;;;;;;15.19;23.13;98375.19;5064848;28;20087;-68
2022/04/05 10:18:22;;;;;;;7.88;2.90;;;;;;;15.24;23.35;98369.69;5065099;28;20095;-68
2022/04/05 10:20:50;;;;;;;13.80;4.10;;;;;;;15.17;23.35;98373.63;5064803;28;20084;-66
2022/04/05 10:23:19;;;;;;;8.60;2.67;;;;;;;14.80;24.28;98367.06;5064341;28;20020;-67
2022/04/05 10:25:48;;;;;;;4.75;1.95;;;;;;;15.08;25.03;98375.84;5065297;28;20044;-67
2022/04/05 10:28:16;;;;;;;7.25;2.10;;;;;;;15.76;24.04;98372.66;5064496;28;20017;-70
2022/04/05 10:30:47;;;;;;;7.82;2.72;;;;;;;15.88;22.55;98363.19;5064491;28;20060;-68
2022/04/05 10:33:19;;;;;;;6.28;2.10;;;;;;;15.49;23.63;98363.81;5064297;28;20202;-68
2022/04/05 10:35:54;;;;;;;10.18;3.20;;;;;;;15.87;23.28;98371.97;5064523;28;20031;-69
2022/04/05 10:38:21;;;;;;;8.68;2.70;;;;;;;15.42;23.35;98370.38;5064041;28;20041;-68
2022/04/05 10:41:20;;;;;;;6.47;2.42;;;;;;;15.32;24.00;98371.88;5064350;28;20555;-68
2022/04/05 10:44:07;;;;;;;6.70;2.38;;;;;;;15.20;23.84;98368.22;5063198;28;20033;-68
2022/04/05 10:46:41;;;;;;;3.58;1.25;;;;;;;14.77;23.87;98372.44;5064073;28;20025;-67
2022/04/05 10:49:07;;;;;;;3.63;1.63;;;;;;;14.62;24.26;98376.75;5064197;28;20028;-67
2022/04/05 10:52:09;;;;;;;5.88;1.83;;;;;;;14.71;24.43;98378.03;5064133;28;20103;-67
2022/04/05 10:54:39;;;;;;;5.18;1.40;;;;;;;15.01;23.76;98369.34;5063882;28;20127;-67
2022/04/05 10:57:27;;;;;;;4.75;1.77;;;;;;;14.83;23.65;98377.31;5064098;28;20024;-67
2022/04/05 11:00:04;;;;;;;2.17;0.88;;;;;;;14.62;23.19;98377.63;5064001;28;20027;-66
2022/04/05 11:02:51;;;;;;;4.30;1.27;;;;;;;14.17;24.09;98380.13;5062493;28;20029;-67
2022/04/05 11:05:19;;;;;;;4.72;1.10;;;;;;;14.18;23.58;98379.22;5063884;28;20021;-67
2022/04/05 11:07:53;;;;;;;8.43;1.42;;;;;;;14.08;23.75;98376.28;5063444;28;20025;-66
2022/04/05 11:10:21;;;;;;;4.13;1.05;;;;;;;14.12;23.83;98376.97;5063640;28;20025;-67
2022/04/05 11:12:47;;;;;;;6.72;1.50;;;;;;;14.01;23.52;98380.16;5063706;28;20025;-67
2022/04/05 11:15:16;;;;;;;4.53;1.70;;;;;;;13.94;23.95;98384.03;5045559;28;20480;-67
2022/04/05 11:17:42;;;;;;;3.15;1.95;;;;;;;14.20;24.23;98384.38;5063410;28;20025;-70
2022/04/05 11:20:10;;;;;;;5.07;1.13;;;;;;;14.49;24.20;98380.09;5063657;28;20044;-67
2022/04/05 11:22:38;;;;;;;2.13;1.08;;;;;;;14.61;23.96;98378.56;5063320;28;20496;-67
2022/04/05 11:25:09;;;;;;;3.53;2.17;;;;;;;14.84;23.70;98381.59;5063186;28;20025;-67
2022/04/05 11:27:45;;;;;;;1.70;0.82;;;;;;;14.77;23.60;98375.03;5063444;28;20021;-68
2022/04/05 11:30:23;;;;;;;4.82;1.33;;;;;;;13.07;25.50;98387.66;5063340;28;20021;-67
2022/04/05 11:33:20;;;;;;;3.53;1.00;;;;;;;11.55;27.59;98378.34;5062779;28;20135;-68
2022/04/05 11:36:00;;;;;;;5.13;1.40;;;;;;;10.52;29.54;98385.28;5063219;28;20044;-66